메인 페이지
METAR-TAF:

METAR-TAF

공항 :

롱뷰, 텍사스, 미국

위도: 32-23-26N, 경도: 094-42-50W, 고도: 111m

현재 날씨관측

예보는 50분 전, 16:00시(UTC)에 발표되었습니다.
남남동4kt
온도 9°C
습도 100%
기압 1014 hPa
시정: 6.4km
고도 7500ft 상공 흐림
비, 박무

METAR: KGGG 191600Z 15004KT 4SM RA BR OVC075 09/09 A2993 RMK AO2 P0001 T00940094 $

시각: 10:50 (16:50 UTC)

예보

예보는 5 시간 30분 전, 11:20시(UTC)에 발표되었습니다.
예보 대상 시간: 19일 12시부터 20일 12시까지 (UTC)
남동8kt
시정: 8.0km
고도 500ft 상공 구름 보통
고도 5000ft 상공 흐림
약한소나기, 박무
일시적
19일 12시부터 19일 16시까지 (UTC)
시정: 4.8km
고도 800ft 상공 흐림
약한소나기, 박무
19일 1600시부터 (UTC)
여러 방향의 바람 6kt
시정: 10km
고도 1000ft 상공 흐림
시계 내 소나기
20일 0400시부터 (UTC)
북서8kt
시정: 8.0km
고도 500ft 상공 흐림
약한소나기, 박무

TAF: KGGG 191120Z 1912/2012 13008KT 5SM -SHRA BR SCT005 OVC050 TEMPO 1912/1916 3SM -SHRA BR OVC008 FM191600 VRB06KT P6SM VCSH OVC010 FM200400 32008KT 5SM -SHRA BR OVC005

4,000개 이상의 공항 관측 자료 및 예보 (METAR 및 TAF 보고).

지도상에서 검색 가능한 기상관측소가 노란 점과 빨간 점으로 표시되어 있습니다.

기상관측소 명을 보려면 표시 위로 마우스를 이동하세요.

날씨 관측과 예보를 보려면 클릭하세요.

지도 변경 : 확대하려면 엑스 표시가 있는 녹색 버튼, 축소하려면 빼기 표시가 있는 녹색 버튼, 다음 페이지의 지도를 보려면 녹색 화살표를 클릭하세요.


METAR-TAF: